Time;durP1;ratioP1;P1;durP2;ratioP2;P2;SDS_P1;SDS_P2;PMS_P1;PMS_P2;Temp;Humidity;BMP_temperature;BMP_pressure;BME280_temperature;BME280_humidity;BME280_pressure;Samples;Min_cycle;Max_cycle;Signal;HPM_P1;HPM_P2
2022/05/20 00:00:33;;;;;;;4.72;3.33;;;;;;;-145.52;100.00;57022.44;5092122;28;20036;-63
2022/05/20 00:02:59;;;;;;;6.32;3.95;;;;;;;-145.52;100.00;57022.44;5059046;28;20021;-64
2022/05/20 00:05:26;;;;;;;4.82;3.78;;;;;;;-145.52;100.00;57022.44;5079095;28;20476;-63
2022/05/20 00:07:52;;;;;;;5.60;3.67;;;;;;;-145.52;100.00;57022.44;5055195;28;20048;-63
2022/05/20 00:10:18;;;;;;;7.35;3.60;;;;;;;-145.52;100.00;57022.44;5049840;28;20033;-63
2022/05/20 00:12:45;;;;;;;6.10;3.90;;;;;;;-145.52;100.00;57022.44;5074752;28;20037;-65
2022/05/20 00:15:14;;;;;;;9.68;3.85;;;;;;;-145.52;100.00;57022.44;5058486;28;20169;-64
2022/05/20 00:17:39;;;;;;;6.00;3.60;;;;;;;-145.52;100.00;57022.44;5067866;28;20067;-63
2022/05/20 00:20:06;;;;;;;6.47;4.25;;;;;;;-145.52;100.00;57022.44;5094280;28;20109;-63
2022/05/20 00:22:32;;;;;;;6.35;4.07;;;;;;;-145.52;100.00;57022.44;5095153;28;20110;-63
2022/05/20 00:27:41;;;;;;;8.07;4.32;;;;;;;-145.52;100.00;57022.44;5091567;28;20055;-64
2022/05/20 00:30:08;;;;;;;5.25;3.75;;;;;;;-145.52;100.00;57022.44;5093195;28;20035;-63
2022/05/20 00:32:33;;;;;;;11.55;4.10;;;;;;;-145.52;100.00;57022.44;5088598;28;20039;-65
2022/05/20 00:34:59;;;;;;;5.25;3.83;;;;;;;-145.52;100.00;57022.44;5093874;28;20036;-64
2022/05/20 00:37:25;;;;;;;5.78;4.30;;;;;;;-145.52;100.00;57022.44;5096042;28;20039;-64
2022/05/20 00:39:50;;;;;;;6.88;4.03;;;;;;;-145.52;100.00;57022.44;5094978;28;20040;-63
2022/05/20 00:42:17;;;;;;;6.13;3.97;;;;;;;-145.52;100.00;57022.44;5079125;28;20468;-63
2022/05/20 00:44:44;;;;;;;9.98;4.82;;;;;;;-145.52;100.00;57022.44;5058226;28;20071;-64
2022/05/20 00:47:13;;;;;;;4.85;4.00;;;;;;;-145.52;100.00;57022.44;5073814;28;20028;-64
2022/05/20 00:49:43;;;;;;;7.00;4.13;;;;;;;-145.52;100.00;57022.44;5075704;28;20033;-62
2022/05/20 00:52:11;;;;;;;8.57;4.00;;;;;;;-145.52;100.00;57022.44;5085846;28;20029;-63
2022/05/20 00:54:41;;;;;;;7.78;4.00;;;;;;;-145.52;100.00;57022.44;5083845;28;20481;-63
2022/05/20 00:57:24;;;;;;;5.80;3.95;;;;;;;-145.52;100.00;57022.44;5094710;28;20531;-62
2022/05/20 01:00:01;;;;;;;6.87;4.10;;;;;;;-145.52;100.00;57022.44;5093436;28;20028;-62
2022/05/20 01:02:30;;;;;;;6.78;4.38;;;;;;;-145.52;100.00;57022.44;5094465;28;20348;-63
2022/05/20 01:05:00;;;;;;;8.65;4.20;;;;;;;-145.52;100.00;57022.44;5056535;28;20033;-63
2022/05/20 01:07:27;;;;;;;4.75;3.55;;;;;;;-145.52;100.00;57022.44;5054010;28;20032;-62
2022/05/20 01:09:53;;;;;;;6.25;4.03;;;;;;;-145.52;100.00;57022.44;5068435;28;20821;-62
2022/05/20 01:12:20;;;;;;;6.63;4.05;;;;;;;-145.52;100.00;57022.44;5087827;28;20036;-62
2022/05/20 01:14:48;;;;;;;4.90;3.85;;;;;;;-145.52;100.00;57022.44;5064537;28;20036;-63
2022/05/20 01:17:13;;;;;;;5.60;3.72;;;;;;;-145.52;100.00;57022.44;5094039;28;20118;-62
2022/05/20 01:19:44;;;;;;;8.27;3.58;;;;;;;-145.52;100.00;57022.44;5090867;28;20120;-62
2022/05/20 01:22:12;;;;;;;6.15;3.80;;;;;;;-145.52;100.00;57022.44;5074030;28;20033;-63
2022/05/20 01:24:37;;;;;;;4.80;4.00;;;;;;;-145.52;100.00;57022.44;5073733;28;20116;-64
2022/05/20 01:27:03;;;;;;;4.38;3.90;;;;;;;-145.52;100.00;57022.44;5074521;28;20128;-64
2022/05/20 01:29:31;;;;;;;4.93;4.28;;;;;;;-145.52;100.00;57022.44;5056860;28;20460;-64
2022/05/20 01:31:56;;;;;;;6.78;4.15;;;;;;;-145.52;100.00;57022.44;5053204;28;20079;-64
2022/05/20 01:34:22;;;;;;;8.80;4.25;;;;;;;-145.52;100.00;57022.44;5071169;28;20397;-63
2022/05/20 01:36:48;;;;;;;14.70;4.40;;;;;;;-145.52;100.00;57022.44;5084378;28;20039;-63
2022/05/20 01:39:14;;;;;;;6.78;4.32;;;;;;;-145.52;100.00;57022.44;5077011;28;20032;-64
2022/05/20 01:41:50;;;;;;;4.85;3.83;;;;;;;-145.52;100.00;57022.44;5080523;28;20048;-64
2022/05/20 01:44:23;;;;;;;5.85;4.05;;;;;;;-145.52;100.00;57022.44;5089849;28;20036;-64
2022/05/20 01:47:01;;;;;;;6.60;4.28;;;;;;;-145.52;100.00;57022.44;5084801;28;20033;-64
2022/05/20 01:49:49;;;;;;;5.88;4.65;;;;;;;-145.52;100.00;57022.44;5073451;28;20040;-64
2022/05/20 01:52:33;;;;;;;6.32;3.78;;;;;;;-145.52;100.00;57022.44;5080967;28;20471;-63
2022/05/20 01:55:10;;;;;;;4.32;3.78;;;;;;;-145.52;100.00;57022.44;5094912;28;20357;-63
2022/05/20 01:57:51;;;;;;;6.15;4.20;;;;;;;-145.52;100.00;57022.44;5081220;28;20486;-62
2022/05/20 02:00:20;;;;;;;6.10;4.07;;;;;;;-145.52;100.00;57022.44;5094771;28;20067;-63
2022/05/20 02:02:56;;;;;;;5.28;4.07;;;;;;;-145.52;100.00;57022.44;5090668;28;20115;-62
2022/05/20 02:05:26;;;;;;;6.03;4.13;;;;;;;-145.52;100.00;57022.44;5095009;28;20035;-63
2022/05/20 02:07:56;;;;;;;8.65;4.75;;;;;;;-145.52;100.00;57022.44;5073786;28;20131;-61
2022/05/20 02:10:37;;;;;;;6.47;4.35;;;;;;;-145.52;100.00;57022.44;5073052;28;20153;-62
2022/05/20 02:13:07;;;;;;;7.63;4.25;;;;;;;-145.52;100.00;57022.44;5072763;28;20119;-62
2022/05/20 02:15:47;;;;;;;11.45;5.68;;;;;;;-145.52;100.00;57022.44;5071709;28;20123;-62
2022/05/20 02:18:19;;;;;;;8.27;4.75;;;;;;;-145.52;100.00;57022.44;5052934;28;20468;-63
2022/05/20 02:20:49;;;;;;;9.38;4.90;;;;;;;-145.52;100.00;57022.44;5066975;28;20067;-63
2022/05/20 02:23:20;;;;;;;7.35;5.07;;;;;;;-145.52;100.00;57022.44;5072716;28;20032;-63
2022/05/20 02:25:53;;;;;;;10.80;5.07;;;;;;;-145.52;100.00;57022.44;5072241;28;20029;-63
2022/05/20 02:28:21;;;;;;;;;;;;;;;-145.52;100.00;57022.44;5072178;28;20028;-63
2022/05/20 02:30:47;;;;;;;7.45;4.57;;;;;;;-145.52;100.00;57022.44;5079328;28;19958;-63
2022/05/20 02:33:17;;;;;;;7.47;4.40;;;;;;;-145.52;100.00;57022.44;5092936;28;20033;-62
2022/05/20 02:35:43;;;;;;;7.80;4.40;;;;;;;-145.52;100.00;57022.44;5088569;28;20055;-63
2022/05/20 02:38:11;;;;;;;10.18;4.88;;;;;;;-145.52;100.00;57022.44;5092729;28;20392;-63
2022/05/20 02:40:38;;;;;;;5.60;4.28;;;;;;;-145.52;100.00;57022.44;5092494;28;20174;-64
2022/05/20 02:43:03;;;;;;;6.43;3.85;;;;;;;-145.52;100.00;57022.44;5088533;28;20427;-63
2022/05/20 02:45:29;;;;;;;6.45;4.43;;;;;;;-145.52;100.00;57022.44;5093854;28;20036;-63
2022/05/20 02:47:55;;;;;;;7.10;4.13;;;;;;;-145.52;100.00;57022.44;5091844;28;20077;-62
2022/05/20 02:50:20;;;;;;;7.95;4.15;;;;;;;-145.52;100.00;57022.44;5093753;28;20054;-62
2022/05/20 02:52:46;;;;;;;8.23;4.22;;;;;;;-145.52;100.00;57022.44;5093537;28;20045;-62
2022/05/20 02:55:11;;;;;;;5.00;3.55;;;;;;;-145.52;100.00;57022.44;5092701;28;20042;-63
2022/05/20 02:57:37;;;;;;;6.85;4.70;;;;;;;-145.52;100.00;57022.44;5081735;28;20048;-62
2022/05/20 03:05:35;;;;;;;4.85;3.65;;;;;;;-145.52;100.00;57022.44;5053837;28;20126;-63
2022/05/20 03:08:01;;;;;;;3.90;3.50;;;;;;;-145.52;100.00;57022.44;5074397;28;20071;-62
2022/05/20 03:10:27;;;;;;;8.38;4.43;;;;;;;-145.52;100.00;57022.44;5069535;28;20035;-63
2022/05/20 03:13:02;;;;;;;7.68;4.15;;;;;;;-145.52;100.00;57022.44;5071485;28;20020;-63
2022/05/20 03:15:28;;;;;;;5.03;3.47;;;;;;;-145.52;100.00;57022.44;5077042;28;20036;-63
2022/05/20 03:17:55;;;;;;;7.65;3.58;;;;;;;-145.52;100.00;57022.44;5093031;28;20074;-63
2022/05/20 03:20:20;;;;;;;7.45;4.18;;;;;;;-145.52;100.00;57022.44;5086812;28;20040;-63
2022/05/20 03:22:46;;;;;;;5.63;3.72;;;;;;;-145.52;100.00;57022.44;5075740;28;20063;-63
2022/05/20 03:25:12;;;;;;;6.68;3.92;;;;;;;-145.52;100.00;57022.44;5074287;28;20044;-63
2022/05/20 03:27:37;;;;;;;7.13;4.40;;;;;;;-145.52;100.00;57022.44;5071342;28;20041;-63
2022/05/20 03:30:08;;;;;;;6.28;4.45;;;;;;;-145.52;100.00;57022.44;5072304;28;20407;-63
2022/05/20 03:32:33;;;;;;;6.35;3.70;;;;;;;-145.52;100.00;57022.44;5070038;28;20079;-63
2022/05/20 03:34:59;;;;;;;6.63;4.45;;;;;;;-145.52;100.00;57022.44;5071267;28;20111;-62
2022/05/20 03:37:25;;;;;;;6.35;4.43;;;;;;;-145.52;100.00;57022.44;5071817;28;20072;-63
2022/05/20 03:39:51;;;;;;;4.82;3.63;;;;;;;-145.52;100.00;57022.44;5072322;28;20075;-63
2022/05/20 03:42:16;;;;;;;6.13;4.30;;;;;;;-145.52;100.00;57022.44;5053829;28;20472;-64
2022/05/20 03:44:42;;;;;;;6.68;4.35;;;;;;;-145.52;100.00;57022.44;5071045;28;20043;-63
2022/05/20 03:47:07;;;;;;;8.23;4.78;;;;;;;-145.52;100.00;57022.44;5069948;28;20044;-63
2022/05/20 03:49:33;;;;;;;9.05;4.50;;;;;;;-145.52;100.00;57022.44;5054050;28;20048;-64
2022/05/20 03:51:58;;;;;;;6.32;5.00;;;;;;;-145.52;100.00;57022.44;5071095;28;20033;-64
2022/05/20 03:54:28;;;;;;;6.70;4.20;;;;;;;-145.52;100.00;57022.44;5071737;28;20029;-63
2022/05/20 03:56:54;;;;;;;6.90;4.05;;;;;;;-145.52;100.00;57022.44;5072129;28;20063;-64
2022/05/20 03:59:19;;;;;;;6.85;3.88;;;;;;;-145.52;100.00;57022.44;5072397;28;20036;-63
2022/05/20 04:01:57;;;;;;;7.10;4.05;;;;;;;-145.52;100.00;57022.44;5074918;28;20040;-64
2022/05/20 04:04:34;;;;;;;8.43;3.90;;;;;;;-145.52;100.00;57022.44;5040157;28;20099;-64
2022/05/20 04:07:02;;;;;;;6.90;3.80;;;;;;;-145.52;100.00;57022.44;5075619;28;20052;-62
2022/05/20 04:09:28;;;;;;;4.95;3.22;;;;;;;-145.52;100.00;57022.44;5074010;28;20048;-62
2022/05/20 04:11:56;;;;;;;4.10;3.33;;;;;;;-145.52;100.00;57022.44;5068906;28;20025;-62
2022/05/20 04:14:25;;;;;;;7.38;3.78;;;;;;;-145.52;100.00;57022.44;5076786;28;20126;-63
2022/05/20 04:16:55;;;;;;;4.50;3.40;;;;;;;-145.52;100.00;57022.44;5074975;28;20025;-63
2022/05/20 04:19:22;;;;;;;8.45;4.15;;;;;;;-145.52;100.00;57022.44;5074542;28;20036;-64
2022/05/20 04:21:50;;;;;;;7.13;3.35;;;;;;;-145.52;100.00;57022.44;5074102;28;20056;-63
2022/05/20 04:24:16;;;;;;;7.88;4.25;;;;;;;-145.52;100.00;57022.44;5073829;28;20036;-62
2022/05/20 04:26:41;;;;;;;6.78;4.68;;;;;;;-145.52;100.00;57022.44;5039798;28;20044;-63
2022/05/20 04:29:07;;;;;;;6.93;4.03;;;;;;;-145.52;100.00;57022.44;5076787;28;20075;-63
2022/05/20 04:31:32;;;;;;;5.68;4.15;;;;;;;-145.52;100.00;57022.44;5075068;28;20112;-63
2022/05/20 04:33:58;;;;;;;8.25;4.22;;;;;;;-145.52;100.00;57022.44;5075241;28;20032;-62
2022/05/20 04:36:23;;;;;;;6.35;4.30;;;;;;;-145.52;100.00;57022.44;5072884;28;20071;-63
2022/05/20 04:38:48;;;;;;;6.55;3.63;;;;;;;-145.52;100.00;57022.44;5074937;28;20119;-63
2022/05/20 04:46:57;;;;;;;5.63;4.00;;;;;;;-145.52;100.00;57022.44;5074263;28;20090;-63
2022/05/20 04:49:24;;;;;;;6.65;4.13;;;;;;;-145.52;100.00;57022.44;5073067;28;20032;-63
2022/05/20 04:51:50;;;;;;;7.35;4.18;;;;;;;-145.52;100.00;57022.44;5067519;28;20040;-62
2022/05/20 04:57:00;;;;;;;7.20;4.35;;;;;;;-145.52;100.00;57022.44;5070194;28;20454;-63
2022/05/20 04:59:26;;;;;;;4.40;3.83;;;;;;;-145.52;100.00;57022.44;5084481;28;20036;-62
2022/05/20 05:01:52;;;;;;;5.57;4.07;;;;;;;-145.52;100.00;57022.44;5080595;28;20118;-63
2022/05/20 05:04:19;;;;;;;7.22;3.95;;;;;;;-145.52;100.00;57022.44;5081802;28;20495;-63
2022/05/20 05:06:46;;;;;;;5.05;4.03;;;;;;;-145.52;100.00;57022.44;5067631;28;20040;-63
2022/05/20 05:09:12;;;;;;;6.63;3.50;;;;;;;-145.52;100.00;57022.44;5074701;28;20076;-64
2022/05/20 05:11:40;;;;;;;6.07;4.10;;;;;;;-145.52;100.00;57022.44;5053309;28;20071;-64
2022/05/20 05:14:07;;;;;;;4.50;3.85;;;;;;;-145.52;100.00;57022.44;5055667;28;20064;-64
2022/05/20 05:16:34;;;;;;;5.68;4.05;;;;;;;-145.52;100.00;57022.44;5073232;28;20040;-64
2022/05/20 05:19:00;;;;;;;6.32;4.80;;;;;;;-145.52;100.00;57022.44;5075511;28;20089;-64
2022/05/20 05:21:26;;;;;;;9.43;4.57;;;;;;;-145.52;100.00;57022.44;5084339;28;20115;-64
2022/05/20 05:23:53;;;;;;;4.65;3.63;;;;;;;-145.52;100.00;57022.44;5074180;28;20039;-64
2022/05/20 05:26:20;;;;;;;4.53;3.20;;;;;;;-145.52;100.00;57022.44;5056344;28;20107;-63
2022/05/20 05:28:45;;;;;;;6.43;3.58;;;;;;;-145.52;100.00;57022.44;5053521;28;20040;-63
2022/05/20 05:31:10;;;;;;;8.00;4.55;;;;;;;-145.52;100.00;57022.44;5059486;28;20028;-63
2022/05/20 05:33:36;;;;;;;7.20;4.35;;;;;;;-145.52;100.00;57022.44;5074277;28;20044;-63
2022/05/20 05:36:02;;;;;;;8.18;4.55;;;;;;;-145.52;100.00;57022.44;5073332;28;20037;-63
2022/05/20 05:38:27;;;;;;;6.72;3.65;;;;;;;-145.52;100.00;57022.44;5074804;28;20016;-63
2022/05/20 05:40:53;;;;;;;4.55;4.03;;;;;;;-145.52;100.00;57022.44;5073250;28;20028;-64
2022/05/20 05:43:18;;;;;;;8.00;4.53;;;;;;;-145.52;100.00;57022.44;5072529;28;20069;-63
2022/05/20 05:45:43;;;;;;;12.65;4.75;;;;;;;-145.52;100.00;57022.44;5073661;28;20032;-63
2022/05/20 05:48:10;;;;;;;6.35;3.50;;;;;;;-145.52;100.00;57022.44;5072359;28;20476;-64
2022/05/20 05:50:38;;;;;;;5.97;4.05;;;;;;;-145.52;100.00;57022.44;5072882;28;20123;-63
2022/05/20 05:53:11;;;;;;;5.05;3.60;;;;;;;-145.52;100.00;57022.44;5073813;28;20033;-63
2022/05/20 05:55:37;;;;;;;4.80;3.95;;;;;;;-145.52;100.00;57022.44;5072465;28;20028;-63
2022/05/20 05:58:03;;;;;;;9.38;4.70;;;;;;;-145.52;100.00;57022.44;5056387;28;20037;-63
2022/05/20 06:00:29;;;;;;;6.55;4.50;;;;;;;-145.52;100.00;57022.44;5072434;28;20086;-63
2022/05/20 06:02:54;;;;;;;9.95;4.22;;;;;;;-145.52;100.00;57022.44;5074165;28;20056;-63
2022/05/20 06:05:20;;;;;;;7.93;4.22;;;;;;;-145.52;100.00;57022.44;5074286;28;20109;-64
2022/05/20 06:07:46;;;;;;;4.90;4.03;;;;;;;-145.52;100.00;57022.44;5073592;28;20040;-63
2022/05/20 06:10:12;;;;;;;6.32;3.80;;;;;;;-145.52;100.00;57022.44;5070457;28;20049;-64
2022/05/20 06:12:38;;;;;;;8.18;4.60;;;;;;;-145.52;100.00;57022.44;5073222;28;20030;-63
2022/05/20 06:15:12;;;;;;;5.00;4.47;;;;;;;-145.52;100.00;57022.44;5072788;28;20038;-63
2022/05/20 06:17:37;;;;;;;7.95;4.60;;;;;;;-145.52;100.00;57022.44;5072832;28;20101;-63
2022/05/20 06:20:03;;;;;;;6.30;4.75;;;;;;;-145.52;100.00;57022.44;5073491;28;20036;-63
2022/05/20 06:22:29;;;;;;;7.30;4.20;;;;;;;-145.52;100.00;57022.44;5072257;28;20441;-63
2022/05/20 06:24:54;;;;;;;6.97;4.60;;;;;;;-145.52;100.00;57022.44;5072983;28;20086;-64
2022/05/20 06:27:20;;;;;;;6.30;4.72;;;;;;;-145.52;100.00;57022.44;5072414;28;20519;-65
2022/05/20 06:29:50;;;;;;;11.82;4.97;;;;;;;-145.52;100.00;57022.44;5055904;28;20028;-65
2022/05/20 06:32:17;;;;;;;9.70;4.00;;;;;;;-145.52;100.00;57022.44;5072601;28;20098;-65
2022/05/20 06:40:14;;;;;;;10.95;3.25;;;;;;;-145.52;100.00;57022.44;5073871;28;20565;-64
2022/05/20 06:42:40;;;;;;;4.22;3.35;;;;;;;-145.52;100.00;57022.44;5072662;28;20028;-64
2022/05/20 06:45:07;;;;;;;11.00;3.10;;;;;;;-145.52;100.00;57022.44;5055456;28;20048;-64
2022/05/20 06:47:32;;;;;;;4.72;2.90;;;;;;;-145.52;100.00;57022.44;5072076;28;20035;-63
2022/05/20 06:49:58;;;;;;;5.97;3.17;;;;;;;-145.52;100.00;57022.44;5072908;28;20115;-63
2022/05/20 06:52:23;;;;;;;4.35;2.72;;;;;;;-145.52;100.00;57022.44;5073254;28;20468;-64
2022/05/20 06:54:49;;;;;;;7.00;3.15;;;;;;;-145.52;100.00;57022.44;5072288;28;20458;-64
2022/05/20 06:57:18;;;;;;;8.80;3.38;;;;;;;-145.52;100.00;57022.44;5072464;28;20028;-63
2022/05/20 06:59:44;;;;;;;6.13;3.08;;;;;;;-145.52;100.00;57022.44;5038948;28;20383;-63
2022/05/20 07:02:09;;;;;;;5.88;3.30;;;;;;;-145.52;100.00;57022.44;5073650;28;20111;-63
2022/05/20 07:04:35;;;;;;;5.18;3.45;;;;;;;-145.52;100.00;57022.44;5072026;28;20464;-64
2022/05/20 07:07:03;;;;;;;6.78;3.10;;;;;;;-145.52;100.00;57022.44;5073314;28;20068;-64
2022/05/20 07:09:29;;;;;;;9.80;3.47;;;;;;;-145.52;100.00;57022.44;5073180;28;20456;-63
2022/05/20 07:11:55;;;;;;;6.03;3.63;;;;;;;-145.52;100.00;57022.44;5072130;28;20074;-64
2022/05/20 07:14:21;;;;;;;7.32;3.45;;;;;;;-145.52;100.00;57022.44;5055480;28;20040;-64
2022/05/20 07:16:47;;;;;;;7.28;3.65;;;;;;;-145.52;100.00;57022.44;5072085;28;20037;-64
2022/05/20 07:19:12;;;;;;;6.80;3.05;;;;;;;-145.52;100.00;57022.44;5071928;28;20028;-64
2022/05/20 07:21:37;;;;;;;4.03;3.42;;;;;;;-145.52;100.00;57022.44;5071750;28;20028;-63
2022/05/20 07:24:04;;;;;;;5.65;3.92;;;;;;;-145.52;100.00;57022.44;5071871;28;20028;-64
2022/05/20 07:26:30;;;;;;;7.10;3.53;;;;;;;-145.52;100.00;57022.44;5071853;28;20047;-65
2022/05/20 07:28:56;;;;;;;8.23;4.03;;;;;;;-145.52;100.00;57022.44;5071710;28;20181;-64
2022/05/20 07:31:24;;;;;;;5.22;3.63;;;;;;;-145.52;100.00;57022.44;5040956;28;20045;-65
2022/05/20 07:33:52;;;;;;;7.97;4.82;;;;;;;-145.52;100.00;57022.44;5052786;28;20044;-64
2022/05/20 07:36:19;;;;;;;8.80;5.70;;;;;;;-145.52;100.00;57022.44;5038599;28;20492;-65
2022/05/20 07:38:44;;;;;;;7.55;6.50;;;;;;;-145.52;100.00;57022.44;5039097;28;20043;-64
2022/05/20 07:41:12;;;;;;;14.27;10.05;;;;;;;-145.52;100.00;57022.44;5056983;28;20033;-64
2022/05/20 07:43:37;;;;;;;12.95;10.45;;;;;;;-145.52;100.00;57022.44;5039283;28;20029;-64
2022/05/20 07:46:04;;;;;;;12.25;8.80;;;;;;;-145.52;100.00;57022.44;5055454;28;20029;-64
2022/05/20 07:48:30;;;;;;;13.75;10.23;;;;;;;-145.52;100.00;57022.44;5055335;28;20112;-64
2022/05/20 07:51:00;;;;;;;14.02;10.68;;;;;;;-145.52;100.00;57022.44;5055446;28;20033;-64
2022/05/20 07:53:33;;;;;;;15.30;9.93;;;;;;;-145.52;100.00;57022.44;5055625;28;20115;-64
2022/05/20 07:56:21;;;;;;;10.98;8.23;;;;;;;-145.52;100.00;57022.44;5055494;28;20475;-65
2022/05/20 07:58:51;;;;;;;11.63;9.02;;;;;;;-145.52;100.00;57022.44;5055305;28;20499;-65
2022/05/20 08:01:24;;;;;;;15.07;9.77;;;;;;;-145.52;100.00;57022.44;5056505;28;20029;-64
2022/05/20 08:06:40;;;;;;;18.73;11.30;;;;;;;-145.52;100.00;57022.44;5056726;28;20389;-65
2022/05/20 08:09:06;;;;;;;16.63;11.43;;;;;;;-145.52;100.00;57022.44;5055097;28;20041;-65
2022/05/20 08:11:32;;;;;;;17.63;11.98;;;;;;;-145.52;100.00;57022.44;5071764;28;20040;-64
2022/05/20 08:13:58;;;;;;;12.40;9.68;;;;;;;-145.52;100.00;57022.44;5075127;28;20035;-64
2022/05/20 08:16:24;;;;;;;12.82;10.60;;;;;;;-145.52;100.00;57022.44;5075697;28;20383;-64
2022/05/20 08:18:49;;;;;;;15.52;10.65;;;;;;;-145.52;100.00;57022.44;5074932;28;20530;-64
2022/05/20 08:21:15;;;;;;;13.63;10.85;;;;;;;-145.52;100.00;57022.44;5075134;28;20131;-65
2022/05/20 08:23:40;;;;;;;14.68;10.75;;;;;;;-145.52;100.00;57022.44;5058208;28;20078;-64
2022/05/20 08:26:05;;;;;;;13.48;10.85;;;;;;;-145.52;100.00;57022.44;5076270;28;20476;-64
2022/05/20 08:28:31;;;;;;;17.45;10.05;;;;;;;-145.52;100.00;57022.44;5074619;28;20090;-64
2022/05/20 08:30:56;;;;;;;14.95;10.80;;;;;;;-145.52;100.00;57022.44;5076293;28;20032;-64
2022/05/20 08:33:22;;;;;;;15.50;10.57;;;;;;;-145.52;100.00;57022.44;5074974;28;20490;-64
2022/05/20 08:35:47;;;;;;;16.08;10.77;;;;;;;-145.52;100.00;57022.44;5074814;28;20028;-64
2022/05/20 08:38:13;;;;;;;12.20;9.93;;;;;;;-145.52;100.00;57022.44;5076034;28;20138;-64
2022/05/20 08:40:44;;;;;;;13.05;10.00;;;;;;;-145.52;100.00;57022.44;5041362;28;20417;-63
2022/05/20 08:43:11;;;;;;;13.82;10.13;;;;;;;-145.52;100.00;57022.44;5074784;28;20032;-64
2022/05/20 08:45:37;;;;;;;15.38;9.85;;;;;;;-145.52;100.00;57022.44;5056955;28;20035;-64
2022/05/20 08:48:05;;;;;;;18.85;12.32;;;;;;;-145.52;100.00;57022.44;5074354;28;20170;-63
2022/05/20 08:50:46;;;;;;;14.63;11.20;;;;;;;-145.52;100.00;57022.44;5057849;28;20415;-64
2022/05/20 08:53:26;;;;;;;15.00;11.80;;;;;;;-145.52;100.00;57022.44;5075672;28;20068;-63
2022/05/20 08:55:52;;;;;;;17.65;11.50;;;;;;;-145.52;100.00;57022.44;5075747;28;20040;-63
2022/05/20 08:58:21;;;;;;;17.25;12.70;;;;;;;-145.52;100.00;57022.44;5075684;28;20024;-63
2022/05/20 09:00:47;;;;;;;16.15;12.05;;;;;;;-145.52;100.00;57022.44;5074489;28;20069;-63
2022/05/20 09:03:13;;;;;;;20.85;12.32;;;;;;;-145.52;100.00;57022.44;5057759;28;20395;-64
2022/05/20 09:05:41;;;;;;;13.10;10.30;;;;;;;-145.52;100.00;57022.44;5075142;28;20472;-63
2022/05/20 09:08:28;;;;;;;14.07;9.02;;;;;;;-145.52;100.00;57022.44;5075134;28;20025;-63
2022/05/20 09:10:59;;;;;;;19.85;12.07;;;;;;;-145.52;100.00;57022.44;5073688;28;20552;-64
2022/05/20 09:16:25;;;;;;;16.20;10.65;;;;;;;-145.52;100.00;57022.44;5075344;28;20039;-63
2022/05/20 09:19:23;;;;;;;13.10;11.07;;;;;;;-145.52;100.00;57022.44;5074172;28;20487;-64
2022/05/20 09:22:01;;;;;;;12.60;8.75;;;;;;;-145.52;100.00;57022.44;5073784;28;20032;-63
2022/05/20 09:24:26;;;;;;;12.45;9.50;;;;;;;-145.52;100.00;57022.44;5075081;28;20033;-64
2022/05/20 09:27:05;;;;;;;12.88;8.60;;;;;;;-145.52;100.00;57022.44;5074972;28;20487;-64
2022/05/20 09:29:40;;;;;;;14.75;9.63;;;;;;;-145.52;100.00;57022.44;5073828;28;20062;-63
2022/05/20 09:32:19;;;;;;;14.05;9.48;;;;;;;-145.52;100.00;57022.44;5057338;28;20145;-63
2022/05/20 09:34:45;;;;;;;11.88;7.43;;;;;;;-145.52;100.00;57022.44;5073519;28;20067;-63
2022/05/20 09:37:10;;;;;;;9.60;8.60;;;;;;;-145.52;100.00;57022.44;5073290;28;20033;-64
2022/05/20 09:39:42;;;;;;;10.20;7.50;;;;;;;-145.52;100.00;57022.44;5074818;28;20024;-64
2022/05/20 09:42:15;;;;;;;8.77;7.87;;;;;;;-145.52;100.00;57022.44;5074826;28;20131;-63
2022/05/20 09:44:44;;;;;;;11.18;7.72;;;;;;;-145.52;100.00;57022.44;5073561;28;20088;-64
2022/05/20 09:47:18;;;;;;;8.90;7.50;;;;;;;-145.52;100.00;57022.44;5073172;28;20039;-64
2022/05/20 09:49:52;;;;;;;9.93;6.75;;;;;;;-145.52;100.00;57022.44;5074652;28;20029;-63
2022/05/20 09:52:25;;;;;;;12.82;7.03;;;;;;;-145.52;100.00;57022.44;5074663;28;20033;-63
2022/05/20 09:55:06;;;;;;;6.90;6.20;;;;;;;-145.52;100.00;57022.44;5073050;28;20029;-64
2022/05/20 09:57:46;;;;;;;11.32;7.10;;;;;;;-145.52;100.00;57022.44;5073141;28;20039;-66
2022/05/20 10:00:23;;;;;;;10.38;5.43;;;;;;;-145.52;100.00;57022.44;5073480;28;20040;-67
2022/05/20 10:03:16;;;;;;;8.07;5.10;;;;;;;-145.52;100.00;57022.44;5073052;28;20036;-65
2022/05/20 10:05:51;;;;;;;9.07;6.53;;;;;;;-145.52;100.00;57022.44;5074329;28;20036;-64
2022/05/20 10:08:32;;;;;;;7.50;5.70;;;;;;;-145.52;100.00;57022.44;5072700;28;20044;-66
2022/05/20 10:11:00;;;;;;;8.77;5.50;;;;;;;-145.52;100.00;57022.44;5072995;28;20082;-66
2022/05/20 10:13:52;;;;;;;10.70;6.70;;;;;;;-145.52;100.00;57022.44;5073906;28;20081;-64
2022/05/20 10:16:48;;;;;;;8.05;6.80;;;;;;;-145.52;100.00;57022.44;5072718;28;20029;-66
2022/05/20 10:19:33;;;;;;;11.25;7.43;;;;;;;-145.52;100.00;57022.44;5072659;28;20078;-65
2022/05/20 10:22:15;;;;;;;11.95;5.97;;;;;;;-145.52;100.00;57022.44;5071712;28;20158;-64
2022/05/20 10:25:07;;;;;;;9.15;6.70;;;;;;;-145.52;100.00;57022.44;5072205;28;20032;-65
2022/05/20 10:27:45;;;;;;;9.05;6.30;;;;;;;-145.52;100.00;57022.44;5073776;28;20071;-66
2022/05/20 10:33:05;;;;;;;7.43;5.72;;;;;;;-145.52;100.00;57022.44;5074049;28;20039;-65
2022/05/20 10:36:06;;;;;;;6.80;4.57;;;;;;;-145.52;100.00;57022.44;5072603;28;20028;-66
2022/05/20 10:39:06;;;;;;;5.40;4.15;;;;;;;-145.52;100.00;57022.44;5055197;28;20040;-64
2022/05/20 10:41:50;;;;;;;7.18;4.40;;;;;;;-145.52;100.00;57022.44;5070793;28;20024;-65
2022/05/20 10:50:20;;;;;;;7.97;4.97;;;;;;;-145.52;100.00;57022.44;5072344;28;20457;-64
2022/05/20 10:53:00;;;;;;;8.95;5.82;;;;;;;-145.52;100.00;57022.44;5073268;28;20115;-66
2022/05/20 10:55:35;;;;;;;6.15;4.88;;;;;;;-145.52;100.00;57022.44;5073143;28;20025;-65
2022/05/20 10:58:48;;;;;;;9.48;4.38;;;;;;;-145.52;100.00;57022.44;5053424;28;20126;-65
2022/05/20 11:01:24;;;;;;;9.63;5.40;;;;;;;-145.52;100.00;57022.44;5052415;28;20032;-64
2022/05/20 11:04:09;;;;;;;9.23;4.80;;;;;;;-145.52;100.00;57022.44;5070265;28;20060;-64
2022/05/20 11:06:53;;;;;;;7.97;3.78;;;;;;;-145.52;100.00;57022.44;5070421;28;20036;-64
2022/05/20 11:09:39;;;;;;;7.80;4.30;;;;;;;-145.52;100.00;57022.44;5071415;28;20059;-66
2022/05/20 11:12:06;;;;;;;8.77;4.50;;;;;;;-145.52;100.00;57022.44;5071011;28;20041;-67
2022/05/20 11:14:34;;;;;;;5.80;4.28;;;;;;;-145.52;100.00;57022.44;5070810;28;20107;-66
2022/05/20 11:17:02;;;;;;;10.43;4.53;;;;;;;-145.52;100.00;57022.44;5072033;28;20480;-65
2022/05/20 11:20:13;;;;;;;7.68;4.25;;;;;;;-145.52;100.00;57022.44;5071040;28;20037;-66
2022/05/20 11:22:41;;;;;;;5.32;3.72;;;;;;;-145.52;100.00;57022.44;5071007;28;20115;-67
2022/05/20 11:25:10;;;;;;;7.03;4.45;;;;;;;-145.52;100.00;57022.44;5071879;28;20046;-66
2022/05/20 11:27:45;;;;;;;8.05;4.43;;;;;;;-145.52;100.00;57022.44;5071053;28;20068;-66
2022/05/20 11:30:19;;;;;;;7.72;3.97;;;;;;;-145.52;100.00;57022.44;5072177;28;20033;-64
2022/05/20 11:33:10;;;;;;;4.93;3.40;;;;;;;-145.52;100.00;57022.44;5065341;28;20050;-66
2022/05/20 11:35:47;;;;;;;12.35;4.78;;;;;;;-145.52;100.00;57022.44;5071763;28;20033;-65
2022/05/20 11:38:35;;;;;;;8.32;4.55;;;;;;;-145.52;100.00;57022.44;5072032;28;20115;-64
2022/05/20 11:41:13;;;;;;;10.00;4.20;;;;;;;-145.52;100.00;57022.44;5072137;28;20032;-64
2022/05/20 11:44:35;;;;;;;10.57;4.72;;;;;;;-145.52;100.00;57022.44;5065469;28;20043;-62
2022/05/20 11:47:32;;;;;;;5.78;4.53;;;;;;;-145.52;100.00;57022.44;5035851;28;20435;-65
2022/05/20 11:50:19;;;;;;;7.18;4.90;;;;;;;-145.52;100.00;57022.44;5066859;28;20093;-65
2022/05/20 11:52:58;;;;;;;6.78;3.97;;;;;;;-145.52;100.00;57022.44;5072147;28;20037;-65
2022/05/20 11:55:33;;;;;;;10.23;3.65;;;;;;;-145.52;100.00;57022.44;5070058;28;20039;-65
2022/05/20 11:58:21;;;;;;;7.47;4.45;;;;;;;-145.52;100.00;57022.44;5071959;28;20842;-65